Time;durP1;ratioP1;P1;durP2;ratioP2;P2;SDS_P1;SDS_P2;PMS_P1;PMS_P2;Temp;Humidity;BMP_temperature;BMP_pressure;BME280_temperature;BME280_humidity;BME280_pressure;Samples;Min_cycle;Max_cycle;Signal;HPM_P1;HPM_P2
2021/07/16 00:00:59;;;;;;;7.38;6.18;;;24.10;67.30;;;;;;5036576;28;20113;-88
2021/07/16 00:03:25;;;;;;;7.40;6.53;;;24.00;67.60;;;;;;5036609;28;20103;-86
2021/07/16 00:05:51;;;;;;;8.90;7.28;;;24.00;67.90;;;;;;5054839;28;20123;-87
2021/07/16 00:08:16;;;;;;;10.05;6.80;;;23.90;68.40;;;;;;5036850;28;20094;-88
2021/07/16 00:10:43;;;;;;;9.73;7.20;;;23.90;68.70;;;;;;5052837;28;20188;-87
2021/07/16 00:13:09;;;;;;;9.57;7.40;;;23.80;69.10;;;;;;5036287;28;20102;-88
2021/07/16 00:15:35;;;;;;;8.90;7.28;;;23.80;69.40;;;;;;5036870;28;20065;-87
2021/07/16 00:18:01;;;;;;;8.77;6.95;;;23.70;69.40;;;;;;5036608;28;20028;-86
2021/07/16 00:20:27;;;;;;;8.35;6.60;;;23.60;69.80;;;;;;5036028;28;20037;-86
2021/07/16 00:22:54;;;;;;;8.93;7.55;;;23.50;70.20;;;;;;5036443;28;20068;-85
2021/07/16 00:25:20;;;;;;;9.10;7.25;;;23.40;70.60;;;;;;5054444;28;20048;-85
2021/07/16 00:27:49;;;;;;;8.07;6.60;;;23.40;70.80;;;;;;5036551;28;20033;-86
2021/07/16 00:30:15;;;;;;;8.38;6.18;;;23.40;70.80;;;;;;5053004;28;20079;-86
2021/07/16 00:32:41;;;;;;;8.60;6.88;;;23.30;70.80;;;;;;5035493;28;20128;-85
2021/07/16 00:35:08;;;;;;;8.90;7.07;;;23.30;71.40;;;;;;5035816;28;20120;-87
2021/07/16 00:37:34;;;;;;;8.50;6.68;;;23.20;71.20;;;;;;5019823;28;20033;-85
2021/07/16 00:40:00;;;;;;;8.38;6.50;;;23.20;71.30;;;;;;5052796;28;20103;-84
2021/07/16 00:42:26;;;;;;;7.43;6.10;;;23.20;71.40;;;;;;5054007;28;20041;-86
2021/07/16 00:44:52;;;;;;;7.70;6.00;;;23.10;71.50;;;;;;5036411;28;20044;-85
2021/07/16 00:47:21;;;;;;;8.68;6.85;;;23.10;71.70;;;;;;5036035;28;20478;-86
2021/07/16 00:49:47;;;;;;;8.55;6.45;;;23.10;71.90;;;;;;5037842;28;20033;-86
2021/07/16 00:52:13;;;;;;;10.23;6.60;;;23.10;72.10;;;;;;5054513;28;20032;-85
2021/07/16 00:54:39;;;;;;;10.00;7.47;;;23.10;72.40;;;;;;5035730;28;20033;-87
2021/07/16 00:57:07;;;;;;;10.30;6.65;;;23.10;72.60;;;;;;5037200;28;20390;-87
2021/07/16 00:59:33;;;;;;;7.68;5.93;;;23.10;72.60;;;;;;5036823;28;20109;-87
2021/07/16 01:02:00;;;;;;;8.25;6.05;;;23.10;72.60;;;;;;5053321;28;20119;-86
2021/07/16 01:04:26;;;;;;;8.85;6.22;;;23.00;72.60;;;;;;5035388;28;20048;-87
2021/07/16 01:06:52;;;;;;;9.20;6.45;;;23.00;72.70;;;;;;5052396;28;20461;-86
2021/07/16 01:09:17;;;;;;;8.45;5.78;;;22.90;73.00;;;;;;5052579;28;20033;-87
2021/07/16 01:11:43;;;;;;;8.95;6.38;;;22.90;73.00;;;;;;5053974;28;20052;-86
2021/07/16 01:14:11;;;;;;;7.85;5.60;;;22.90;73.20;;;;;;5035724;28;20132;-87
2021/07/16 01:16:37;;;;;;;7.20;5.80;;;22.90;73.20;;;;;;5036022;28;20037;-87
2021/07/16 01:19:03;;;;;;;7.72;5.50;;;22.80;73.40;;;;;;5053878;28;20220;-88
2021/07/16 01:21:32;;;;;;;7.60;5.82;;;22.80;73.60;;;;;;5035681;28;20033;-86
2021/07/16 01:23:58;;;;;;;8.20;5.95;;;22.70;73.70;;;;;;5035663;28;20072;-86
2021/07/16 01:26:24;;;;;;;9.57;6.15;;;22.70;74.00;;;;;;5053201;28;20561;-85
2021/07/16 01:28:52;;;;;;;8.73;6.13;;;22.70;74.30;;;;;;5036315;28;20037;-88
2021/07/16 01:31:19;;;;;;;7.90;6.10;;;22.70;74.50;;;;;;5035405;28;20029;-86
2021/07/16 01:33:45;;;;;;;7.85;6.03;;;22.70;74.70;;;;;;5035329;28;20418;-86
2021/07/16 01:36:11;;;;;;;9.13;5.82;;;22.70;74.70;;;;;;5053408;28;20029;-87
2021/07/16 01:38:36;;;;;;;6.93;5.68;;;22.70;74.50;;;;;;5035557;28;20033;-85
2021/07/16 01:41:02;;;;;;;7.90;5.97;;;22.70;74.60;;;;;;5053764;28;20112;-86
2021/07/16 01:43:28;;;;;;;7.57;5.45;;;22.70;74.50;;;;;;5034999;28;20048;-87
2021/07/16 01:45:54;;;;;;;6.90;5.45;;;22.70;74.60;;;;;;5053271;28;20036;-86
2021/07/16 01:48:20;;;;;;;8.23;5.80;;;22.70;74.70;;;;;;5035233;28;20510;-87
2021/07/16 01:50:48;;;;;;;8.23;5.70;;;22.70;74.90;;;;;;5035001;28;20029;-86
2021/07/16 01:53:19;;;;;;;10.70;7.32;;;22.70;74.90;;;;;;5053524;28;20127;-86
2021/07/16 01:55:46;;;;;;;9.27;7.07;;;22.60;75.50;;;;;;5035779;28;20039;-85
2021/07/16 01:58:15;;;;;;;8.82;6.88;;;22.60;75.70;;;;;;5035454;28;20091;-85
2021/07/16 02:00:46;;;;;;;9.93;7.05;;;22.50;76.30;;;;;;5036591;28;20048;-86
2021/07/16 02:03:15;;;;;;;10.18;6.63;;;22.40;76.70;;;;;;5035780;28;20438;-85
2021/07/16 02:05:44;;;;;;;8.32;6.40;;;22.40;76.80;;;;;;5039374;28;20379;-86
2021/07/16 02:08:13;;;;;;;8.48;5.65;;;22.40;77.20;;;;;;5059106;28;20032;-85
2021/07/16 02:10:41;;;;;;;9.23;6.55;;;22.30;76.70;;;;;;5043342;28;20044;-86
2021/07/16 02:13:07;;;;;;;10.20;6.57;;;22.30;76.90;;;;;;5042676;28;20175;-85
2021/07/16 02:15:36;;;;;;;8.43;5.95;;;22.30;77.00;;;;;;5039296;28;20067;-87
2021/07/16 02:18:02;;;;;;;8.63;5.75;;;22.30;77.10;;;;;;5038881;28;20087;-87
2021/07/16 02:20:31;;;;;;;8.13;6.03;;;22.30;77.10;;;;;;5040054;28;20033;-87
2021/07/16 02:23:00;;;;;;;9.23;6.28;;;22.30;77.20;;;;;;5038620;28;20041;-86
2021/07/16 02:25:28;;;;;;;8.55;6.07;;;22.30;77.20;;;;;;5022679;28;20037;-87
2021/07/16 02:27:57;;;;;;;9.40;6.13;;;22.30;77.20;;;;;;5038241;28;20076;-86
2021/07/16 02:30:25;;;;;;;9.02;6.00;;;22.30;77.50;;;;;;5056726;28;20514;-86
2021/07/16 02:32:51;;;;;;;9.55;6.15;;;22.30;77.40;;;;;;5038845;28;20033;-86
2021/07/16 02:35:17;;;;;;;9.20;6.25;;;22.30;78.20;;;;;;5038664;28;20047;-86
2021/07/16 02:37:43;;;;;;;8.30;6.05;;;22.30;77.60;;;;;;5039309;28;20389;-86
2021/07/16 02:40:11;;;;;;;6.32;5.22;;;22.30;77.50;;;;;;5039633;28;20394;-88
2021/07/16 02:42:37;;;;;;;8.35;6.07;;;22.30;77.40;;;;;;5040424;28;20052;-84
2021/07/16 02:45:11;;;;;;;6.40;5.03;;;22.30;77.50;;;;;;5039667;28;20033;-85
2021/07/16 02:47:37;;;;;;;8.13;5.40;;;22.30;78.60;;;;;;5040112;28;20036;-86
2021/07/16 02:50:13;;;;;;;8.40;5.22;;;22.30;77.50;;;;;;5038247;28;20036;-86
2021/07/16 02:52:41;;;;;;;8.68;5.60;;;22.30;77.50;;;;;;5055905;28;20111;-86
2021/07/16 02:55:08;;;;;;;7.55;5.38;;;22.30;77.50;;;;;;5037699;28;20404;-87
2021/07/16 02:57:34;;;;;;;8.27;5.80;;;22.40;77.50;;;;;;5038521;28;20036;-87
2021/07/16 03:00:00;;;;;;;8.93;5.75;;;22.40;77.60;;;;;;5038020;28;20133;-86
2021/07/16 03:02:29;;;;;;;6.72;5.07;;;22.40;77.40;;;;;;5055933;28;20041;-86
2021/07/16 03:04:56;;;;;;;8.85;5.35;;;22.40;77.40;;;;;;5038217;28;20044;-87
2021/07/16 03:07:22;;;;;;;7.50;4.65;;;22.50;77.30;;;;;;5038200;28;20040;-86
2021/07/16 03:09:48;;;;;;;8.27;5.43;;;22.50;77.70;;;;;;5037759;28;20029;-86
2021/07/16 03:12:14;;;;;;;8.07;4.85;;;22.60;77.10;;;;;;5037333;28;20071;-86
2021/07/16 03:14:39;;;;;;;6.25;4.68;;;22.60;76.80;;;;;;5037838;28;20049;-86
2021/07/16 03:17:07;;;;;;;6.63;4.88;;;22.70;76.70;;;;;;5055638;28;20429;-86
2021/07/16 03:19:32;;;;;;;7.40;4.63;;;22.70;76.60;;;;;;5054591;28;20033;-85
2021/07/16 03:21:59;;;;;;;6.40;5.00;;;22.80;76.50;;;;;;5037639;28;20036;-85
2021/07/16 03:24:25;;;;;;;7.00;5.00;;;22.80;76.30;;;;;;5037590;28;20045;-86
2021/07/16 03:26:53;;;;;;;7.10;4.88;;;22.80;76.30;;;;;;5053798;28;20379;-87
2021/07/16 03:29:18;;;;;;;8.55;5.10;;;22.90;76.40;;;;;;5037716;28;20033;-86
2021/07/16 03:31:44;;;;;;;8.38;5.25;;;22.90;76.10;;;;;;5054078;28;20044;-87
2021/07/16 03:34:10;;;;;;;7.75;5.00;;;23.00;76.10;;;;;;5037431;28;20037;-86
2021/07/16 03:36:37;;;;;;;6.18;4.13;;;23.10;76.10;;;;;;5037644;28;20060;-86
2021/07/16 03:39:05;;;;;;;7.00;4.40;;;23.10;75.90;;;;;;5037641;28;20136;-87
2021/07/16 03:41:33;;;;;;;7.07;5.22;;;23.10;75.70;;;;;;5055162;28;20467;-87
2021/07/16 03:43:59;;;;;;;10.80;5.82;;;23.20;75.50;;;;;;5037248;28;20037;-87
2021/07/16 03:46:27;;;;;;;7.82;5.05;;;23.20;75.20;;;;;;5054488;28;20033;-87
2021/07/16 03:48:56;;;;;;;7.05;5.45;;;23.20;75.20;;;;;;5055444;28;20025;-88
2021/07/16 03:51:23;;;;;;;6.75;4.88;;;23.30;75.20;;;;;;5036476;28;20033;-86
2021/07/16 03:53:52;;;;;;;7.18;5.13;;;23.40;75.00;;;;;;5050123;28;20040;-86
2021/07/16 03:56:18;;;;;;;6.53;4.95;;;23.40;74.80;;;;;;5056303;28;20040;-87
2021/07/16 03:58:45;;;;;;;7.63;5.03;;;23.50;74.70;;;;;;5074450;28;20036;-86
2021/07/16 04:01:13;;;;;;;7.03;5.05;;;23.50;74.60;;;;;;5090158;28;20059;-87
2021/07/16 04:03:38;;;;;;;7.22;4.93;;;23.60;74.40;;;;;;5074361;28;20117;-86
2021/07/16 04:06:04;;;;;;;7.47;5.35;;;23.70;74.10;;;;;;5074541;28;20428;-86
2021/07/16 04:08:34;;;;;;;9.90;5.00;;;23.80;73.90;;;;;;5090844;28;20033;-88
2021/07/16 04:11:00;;;;;;;6.30;4.53;;;23.80;73.80;;;;;;5074237;28;20036;-88
2021/07/16 04:13:26;;;;;;;6.50;4.78;;;23.90;73.50;;;;;;5056050;28;20071;-88
2021/07/16 04:15:51;;;;;;;6.68;4.57;;;24.00;73.50;;;;;;5058431;28;20109;-89
2021/07/16 04:18:17;;;;;;;7.20;4.35;;;24.00;73.50;;;;;;5076846;28;20105;-88
2021/07/16 04:20:43;;;;;;;6.68;4.40;;;24.10;73.40;;;;;;5062076;28;20067;-87
2021/07/16 04:23:09;;;;;;;5.57;4.50;;;24.20;73.30;;;;;;5081297;28;20037;-89
2021/07/16 04:25:35;;;;;;;5.68;4.25;;;24.30;73.20;;;;;;5063335;28;20060;-89
2021/07/16 04:28:03;;;;;;;7.15;5.53;;;24.40;73.00;;;;;;5090514;28;20463;-89
2021/07/16 04:30:29;;;;;;;7.35;5.70;;;24.50;72.60;;;;;;5055988;28;20068;-88
2021/07/16 04:32:57;;;;;;;9.15;5.30;;;24.60;72.20;;;;;;5056143;28;20090;-86
2021/07/16 04:35:23;;;;;;;6.75;5.35;;;24.70;71.80;;;;;;5055141;28;20086;-88
2021/07/16 04:37:49;;;;;;;34.80;31.20;;;24.90;71.70;;;;;;5073950;28;20040;-91
2021/07/16 04:40:19;;;;;;;19.95;17.85;;;25.00;71.30;;;;;;5073578;28;20098;-88
2021/07/16 04:42:45;;;;;;;12.48;11.18;;;25.10;71.20;;;;;;5055849;28;20110;-90
2021/07/16 04:45:13;;;;;;;11.25;8.77;;;25.20;70.90;;;;;;5056174;28;20437;-89
2021/07/16 04:47:40;;;;;;;8.35;6.93;;;25.30;70.70;;;;;;5055422;28;20036;-90
2021/07/16 04:50:07;;;;;;;7.85;6.03;;;25.30;70.50;;;;;;5054570;28;20478;-90
2021/07/16 04:52:41;;;;;;;8.70;6.47;;;25.40;70.40;;;;;;5053377;28;20492;-90
2021/07/16 04:55:07;;;;;;;10.13;6.70;;;25.50;70.60;;;;;;5053985;28;20028;-90
2021/07/16 04:57:34;;;;;;;7.25;5.57;;;25.60;70.60;;;;;;5054786;28;20064;-88
2021/07/16 05:00:00;;;;;;;7.72;5.55;;;25.60;70.50;;;;;;5073026;28;20067;-87
2021/07/16 05:02:26;;;;;;;6.47;5.30;;;25.60;70.40;;;;;;5090438;28;20114;-89
2021/07/16 05:04:51;;;;;;;6.38;4.90;;;25.80;70.40;;;;;;5055975;28;20059;-86
2021/07/16 05:07:17;;;;;;;8.18;5.32;;;25.90;70.40;;;;;;5056027;28;20044;-90
2021/07/16 05:09:43;;;;;;;8.70;5.55;;;26.00;70.20;;;;;;5038774;28;20044;-90
2021/07/16 05:12:09;;;;;;;7.53;5.95;;;26.20;69.70;;;;;;5056181;28;20060;-89
2021/07/16 05:14:36;;;;;;;7.25;5.70;;;26.30;69.30;;;;;;5089762;28;20080;-90
2021/07/16 05:17:03;;;;;;;6.78;5.47;;;26.40;69.10;;;;;;5056441;28;20047;-90
2021/07/16 05:19:29;;;;;;;9.52;6.32;;;26.50;68.70;;;;;;5056459;28;20032;-87
2021/07/16 05:21:57;;;;;;;9.45;6.57;;;26.60;68.60;;;;;;5074614;28;20485;-87
2021/07/16 05:24:23;;;;;;;6.57;5.85;;;26.80;68.50;;;;;;5088825;28;20045;-88
2021/07/16 05:26:49;;;;;;;8.15;6.30;;;26.80;68.30;;;;;;5073297;28;20029;-85
2021/07/16 05:29:15;;;;;;;7.72;5.78;;;27.00;67.90;;;;;;5055731;28;20033;-86
2021/07/16 05:31:40;;;;;;;9.60;6.18;;;27.10;67.60;;;;;;5074035;28;20044;-85
2021/07/16 05:34:07;;;;;;;6.95;5.72;;;27.30;67.30;;;;;;5056421;28;20441;-88
2021/07/16 05:36:33;;;;;;;7.40;5.95;;;27.40;67.00;;;;;;5061369;28;20036;-85
2021/07/16 05:39:03;;;;;;;6.88;5.93;;;27.50;66.80;;;;;;5079835;28;20127;-85
2021/07/16 05:41:29;;;;;;;6.70;5.75;;;27.60;66.60;;;;;;5066110;28;20033;-86
2021/07/16 05:43:55;;;;;;;7.72;6.32;;;27.70;66.50;;;;;;5066632;28;20043;-86
2021/07/16 05:46:21;;;;;;;7.45;6.20;;;27.90;66.30;;;;;;5083302;28;20067;-85
2021/07/16 05:48:48;;;;;;;9.85;6.10;;;28.00;65.90;;;;;;5062196;28;20091;-88
2021/07/16 05:51:15;;;;;;;5.97;5.35;;;28.10;65.30;;;;;;5060896;28;20048;-86
2021/07/16 05:53:41;;;;;;;7.00;5.13;;;28.20;65.60;;;;;;5060298;28;20044;-87
2021/07/16 05:56:17;;;;;;;164.98;108.93;;;28.40;64.70;;;;;;5060135;28;20028;-93
2021/07/16 05:58:57;;;;;;;73.90;54.15;;;28.60;64.30;;;;;;5060361;28;20071;-93
2021/07/16 06:01:22;;;;;;;36.60;28.00;;;28.80;63.80;;;;;;5059074;28;20063;-94
2021/07/16 06:03:48;;;;;;;21.48;16.85;;;28.90;63.30;;;;;;5059174;28;20051;-90
2021/07/16 06:06:16;;;;;;;15.18;11.75;;;29.00;62.90;;;;;;5066620;28;20028;-88
2021/07/16 06:08:42;;;;;;;10.27;7.65;;;29.10;62.50;;;;;;5061688;28;20063;-90
2021/07/16 06:11:08;;;;;;;7.80;6.50;;;29.20;62.00;;;;;;5067643;28;20459;-90
2021/07/16 06:13:33;;;;;;;6.53;5.20;;;29.30;61.80;;;;;;5059634;28;20128;-89
2021/07/16 06:15:59;;;;;;;6.60;4.80;;;29.50;60.50;;;;;;5040709;28;20041;-88
2021/07/16 06:18:25;;;;;;;5.65;4.13;;;29.50;59.80;;;;;;5053388;28;20162;-90
2021/07/16 06:20:51;;;;;;;5.35;4.00;;;29.60;59.90;;;;;;5069889;28;20086;-90
2021/07/16 06:23:17;;;;;;;5.00;3.75;;;29.70;59.60;;;;;;5053874;28;20071;-92
2021/07/16 06:25:43;;;;;;;5.28;4.28;;;29.90;59.00;;;;;;5043506;28;20493;-91
2021/07/16 06:28:13;;;;;;;6.93;4.55;;;30.00;58.30;;;;;;5065698;28;20101;-91
2021/07/16 06:30:39;;;;;;;6.72;4.47;;;30.10;57.70;;;;;;5045167;28;20491;-89
2021/07/16 06:33:04;;;;;;;7.43;4.80;;;30.10;57.10;;;;;;5066875;28;20090;-90
2021/07/16 06:35:30;;;;;;;6.50;4.40;;;30.20;56.80;;;;;;5069698;28;20481;-89
2021/07/16 06:37:56;;;;;;;5.03;4.43;;;30.30;56.60;;;;;;5065331;28;20035;-88
2021/07/16 06:40:22;;;;;;;5.40;4.18;;;30.40;56.70;;;;;;5047410;28;20033;-90
2021/07/16 06:42:48;;;;;;;6.05;4.50;;;30.40;56.60;;;;;;5047899;28;20467;-91
2021/07/16 06:45:13;;;;;;;5.40;4.30;;;30.50;55.70;;;;;;5044268;28;20127;-88
2021/07/16 06:47:39;;;;;;;5.53;4.28;;;30.60;55.60;;;;;;5044455;28;20056;-89
2021/07/16 06:50:06;;;;;;;5.32;4.20;;;30.60;55.30;;;;;;5049731;28;20119;-90
2021/07/16 06:52:33;;;;;;;6.18;4.20;;;30.70;55.50;;;;;;5061419;28;20033;-90
2021/07/16 06:55:00;;;;;;;5.30;4.30;;;30.70;55.20;;;;;;5066972;28;20442;-93
2021/07/16 06:57:29;;;;;;;6.65;3.83;;;30.80;55.20;;;;;;5069422;28;20100;-89
2021/07/16 06:59:54;;;;;;;5.40;4.13;;;30.80;55.10;;;;;;5065567;28;20364;-90
2021/07/16 07:02:20;;;;;;;4.90;4.10;;;31.00;55.10;;;;;;5049651;28;20039;-89
2021/07/16 07:04:46;;;;;;;6.88;3.95;;;31.10;55.20;;;;;;5046403;28;20032;-90
2021/07/16 07:07:12;;;;;;;7.57;4.97;;;31.20;55.00;;;;;;5043550;28;20539;-88
2021/07/16 07:09:37;;;;;;;4.82;4.10;;;31.30;54.40;;;;;;5045379;28;20037;-90
2021/07/16 07:12:03;;;;;;;5.85;3.97;;;31.30;54.40;;;;;;5046027;28;20037;-90
2021/07/16 07:14:29;;;;;;;6.72;4.20;;;31.50;54.60;;;;;;5064992;28;20387;-88
2021/07/16 07:16:55;;;;;;;5.45;4.43;;;31.60;54.50;;;;;;5044814;28;20037;-89
2021/07/16 07:19:27;;;;;;;6.78;4.60;;;31.60;53.90;;;;;;5047223;28;20033;-89
2021/07/16 07:21:53;;;;;;;6.25;4.70;;;31.70;54.00;;;;;;5048252;28;20039;-87
2021/07/16 07:24:19;;;;;;;4.53;4.00;;;31.80;54.00;;;;;;5045803;28;20046;-87
2021/07/16 07:26:44;;;;;;;6.18;4.18;;;31.80;54.00;;;;;;5048493;28;20041;-88
2021/07/16 07:29:10;;;;;;;4.85;3.65;;;32.00;54.30;;;;;;5048035;28;20036;-88
2021/07/16 07:31:36;;;;;;;4.72;3.80;;;32.20;54.20;;;;;;5045178;28;20119;-88
2021/07/16 07:34:02;;;;;;;5.35;4.20;;;32.30;54.10;;;;;;5046610;28;20068;-88
2021/07/16 07:36:28;;;;;;;4.65;4.00;;;32.50;53.90;;;;;;5044740;28;20033;-87
2021/07/16 07:38:55;;;;;;;5.00;4.47;;;32.70;53.70;;;;;;5049641;28;20037;-87
2021/07/16 07:41:21;;;;;;;5.13;4.00;;;32.80;53.30;;;;;;5043720;28;20490;-85
2021/07/16 07:43:47;;;;;;;5.50;4.50;;;33.00;53.30;;;;;;5042452;28;20064;-89
2021/07/16 07:46:13;;;;;;;5.10;4.60;;;33.10;52.70;;;;;;5047460;28;20025;-87
2021/07/16 07:48:40;;;;;;;7.22;4.60;;;33.10;52.20;;;;;;5058206;28;20115;-87
2021/07/16 07:51:05;;;;;;;5.85;4.15;;;33.10;52.30;;;;;;5048052;28;20390;-88
2021/07/16 07:53:31;;;;;;;5.70;4.05;;;33.10;52.60;;;;;;5046416;28;20040;-92
2021/07/16 07:55:57;;;;;;;4.55;3.90;;;33.10;52.70;;;;;;5052782;28;20048;-93
2021/07/16 07:58:23;;;;;;;5.47;3.75;;;33.30;52.60;;;;;;5047417;28;20033;-92
2021/07/16 08:00:48;;;;;;;4.28;3.88;;;33.50;52.50;;;;;;5065406;28;20028;-93
2021/07/16 08:03:14;;;;;;;5.63;4.07;;;33.60;52.50;;;;;;5045739;28;20041;-92
2021/07/16 08:05:43;;;;;;;4.30;3.90;;;33.70;52.20;;;;;;5056838;28;20128;-94
2021/07/16 08:08:09;;;;;;;5.67;4.00;;;33.80;52.10;;;;;;5045412;28;20120;-87
2021/07/16 08:10:35;;;;;;;5.07;4.15;;;33.90;52.20;;;;;;5045601;28;20061;-90
2021/07/16 08:13:01;;;;;;;5.25;4.03;;;34.00;52.00;;;;;;5049810;28;20055;-87
2021/07/16 08:15:27;;;;;;;4.45;4.05;;;34.10;52.00;;;;;;5041645;28;20386;-89
2021/07/16 08:17:55;;;;;;;4.10;3.70;;;34.20;51.70;;;;;;5041743;28;20124;-89
2021/07/16 08:20:24;;;;;;;4.82;4.15;;;34.40;51.90;;;;;;5042683;28;20371;-89
2021/07/16 08:22:50;;;;;;;6.85;4.18;;;34.60;52.00;;;;;;5058811;28;20104;-87
2021/07/16 08:25:16;;;;;;;4.50;4.10;;;34.80;52.10;;;;;;5049065;28;20036;-90
2021/07/16 08:27:42;;;;;;;7.10;4.38;;;35.00;52.00;;;;;;5048427;28;20068;-90
2021/07/16 08:30:09;;;;;;;5.80;4.10;;;35.20;51.80;;;;;;5046862;28;20099;-91
2021/07/16 08:32:43;;;;;;;4.20;3.80;;;35.50;51.60;;;;;;5041497;28;20044;-90
2021/07/16 08:35:09;;;;;;;5.18;4.00;;;35.80;51.40;;;;;;5040416;28;20040;-90
2021/07/16 08:37:38;;;;;;;6.63;4.30;;;36.10;51.00;;;;;;5038974;28;20028;-93
2021/07/16 08:40:05;;;;;;;8.23;4.57;;;36.40;50.60;;;;;;5049636;28;20029;-91
2021/07/16 08:42:32;;;;;;;6.25;4.72;;;36.50;49.90;;;;;;5039116;28;20467;-91
2021/07/16 08:45:00;;;;;;;5.57;5.00;;;36.70;48.60;;;;;;5042265;28;20032;-89
2021/07/16 08:47:26;;;;;;;6.53;5.20;;;36.80;48.30;;;;;;5041454;28;20037;-92
2021/07/16 08:49:56;;;;;;;6.13;5.32;;;36.90;48.20;;;;;;5042346;28;20029;-92
2021/07/16 08:52:22;;;;;;;5.50;5.00;;;36.90;47.10;;;;;;5042113;28;20064;-90
2021/07/16 08:54:50;;;;;;;5.38;4.88;;;36.90;47.40;;;;;;5044484;28;20087;-91
2021/07/16 08:57:18;;;;;;;4.88;4.40;;;37.00;47.50;;;;;;5046021;28;20040;-91
2021/07/16 08:59:46;;;;;;;5.05;4.50;;;37.20;47.60;;;;;;5047894;28;20025;-91
2021/07/16 09:02:15;;;;;;;5.22;4.72;;;37.40;46.90;;;;;;5046624;28;20064;-89
2021/07/16 09:04:42;;;;;;;5.18;4.68;;;37.60;46.80;;;;;;5052287;28;20048;-90
2021/07/16 09:07:08;;;;;;;5.30;4.78;;;37.80;46.90;;;;;;5059824;28;20100;-90
2021/07/16 09:09:39;;;;;;;6.07;5.07;;;38.10;46.50;;;;;;5076784;28;20029;-86
2021/07/16 09:12:12;;;;;;;5.70;5.15;;;38.30;45.60;;;;;;5061876;28;20040;-87
2021/07/16 09:14:39;;;;;;;5.45;4.95;;;38.30;43.70;;;;;;5059239;28;20053;-88
2021/07/16 09:17:14;;;;;;;5.40;4.88;;;38.30;45.10;;;;;;5060497;28;20032;-89
2021/07/16 09:19:45;;;;;;;6.32;4.38;;;38.50;44.80;;;;;;5063209;28;20032;-88
2021/07/16 09:22:23;;;;;;;5.63;4.80;;;38.60;45.00;;;;;;5058165;28;20029;-91
2021/07/16 09:24:59;;;;;;;5.35;4.85;;;38.80;42.90;;;;;;5049835;28;20041;-91
2021/07/16 09:27:32;;;;;;;5.38;4.68;;;39.00;43.50;;;;;;5055964;28;20032;-89
2021/07/16 09:30:16;;;;;;;5.68;5.18;;;39.10;43.00;;;;;;5053877;28;20395;-91
2021/07/16 09:32:45;;;;;;;5.30;4.70;;;39.20;43.40;;;;;;5047426;28;20039;-92
2021/07/16 09:35:23;;;;;;;6.13;5.53;;;39.20;42.70;;;;;;5052682;28;20062;-89
2021/07/16 09:37:59;;;;;;;5.15;4.65;;;39.20;42.20;;;;;;5053231;28;20110;-90
2021/07/16 09:40:32;;;;;;;4.80;4.30;;;39.20;42.70;;;;;;5051447;28;20086;-90
2021/07/16 09:43:16;;;;;;;5.22;4.72;;;39.30;42.90;;;;;;5021960;28;20045;-90
2021/07/16 09:46:04;;;;;;;6.25;4.80;;;39.50;42.70;;;;;;5052970;28;20039;-88
2021/07/16 09:48:33;;;;;;;5.75;4.45;;;39.70;42.40;;;;;;5057944;28;20094;-90
2021/07/16 09:51:27;;;;;;;7.15;5.13;;;39.90;42.10;;;;;;5056978;28;20031;-89
2021/07/16 09:54:03;;;;;;;6.10;5.43;;;40.00;40.70;;;;;;5056377;28;20568;-90
2021/07/16 09:56:33;;;;;;;5.82;5.22;;;40.00;40.30;;;;;;5047921;28;20056;-93
2021/07/16 09:59:10;;;;;;;6.32;5.07;;;40.00;40.20;;;;;;5070435;28;20036;-91
2021/07/16 10:01:43;;;;;;;6.22;4.70;;;40.00;39.60;;;;;;5053063;28;20560;-92
2021/07/16 10:04:19;;;;;;;5.88;4.53;;;40.00;39.90;;;;;;5051625;28;20124;-92
2021/07/16 10:06:47;;;;;;;5.25;4.70;;;40.00;38.30;;;;;;5053255;28;20091;-88
2021/07/16 10:09:23;;;;;;;5.30;4.80;;;40.00;39.20;;;;;;5054164;28;20033;-89
2021/07/16 10:11:51;;;;;;;6.43;4.90;;;39.90;39.00;;;;;;5066075;28;20029;-89
2021/07/16 10:14:18;;;;;;;5.47;4.27;;;40.00;39.70;;;;;;5043145;28;20084;-88
2021/07/16 10:16:52;;;;;;;5.40;4.90;;;40.30;39.80;;;;;;5041071;28;20467;-91
2021/07/16 10:19:18;;;;;;;5.57;5.07;;;40.50;39.40;;;;;;5056693;28;20075;-88
2021/07/16 10:21:45;;;;;;;6.25;4.80;;;40.60;39.00;;;;;;5037535;28;20031;-87
2021/07/16 10:24:17;;;;;;;6.95;4.97;;;40.60;39.20;;;;;;5037448;28;20040;-89
2021/07/16 10:26:50;;;;;;;5.30;4.80;;;40.80;39.00;;;;;;5038189;28;20025;-87
2021/07/16 10:29:45;;;;;;;5.85;5.28;;;41.10;38.90;;;;;;5035429;28;20523;-89
2021/07/16 10:32:31;;;;;;;5.22;4.72;;;41.40;37.60;;;;;;5034471;28;20029;-90
2021/07/16 10:35:20;;;;;;;6.22;4.88;;;41.70;39.00;;;;;;5036203;28;20653;-93
2021/07/16 10:37:46;;;;;;;;;;;42.00;37.50;;;;;;5038044;28;20108;-91
2021/07/16 10:40:34;;;;;;;8.25;4.97;;;41.80;36.60;;;;;;5038639;28;19951;-93
2021/07/16 10:43:03;;;;;;;6.53;4.80;;;42.10;37.30;;;;;;5039034;28;20384;-92
2021/07/16 10:45:48;;;;;;;7.20;4.50;;;42.10;38.10;;;;;;5040392;28;20270;-92
2021/07/16 10:48:14;;;;;;;5.95;5.18;;;41.80;36.90;;;;;;5042514;28;20111;-88
2021/07/16 10:50:44;;;;;;;5.22;4.70;;;41.50;38.30;;;;;;5041664;28;20103;-94
2021/07/16 10:53:30;;;;;;;7.10;5.22;;;41.50;38.70;;;;;;5040529;28;20475;-93
2021/07/16 10:55:55;;;;;;;5.28;4.78;;;41.80;38.10;;;;;;5040144;28;20124;-91
2021/07/16 10:58:28;;;;;;;6.70;5.07;;;42.00;38.70;;;;;;5041290;28;20068;-92
2021/07/16 11:01:04;;;;;;;6.70;5.28;;;42.20;38.40;;;;;;5041058;28;20055;-93
2021/07/16 11:03:56;;;;;;;6.10;4.95;;;42.40;38.40;;;;;;5058038;28;20037;-91
2021/07/16 11:06:52;;;;;;;6.72;5.18;;;42.60;37.00;;;;;;5035586;28;20403;-91
2021/07/16 11:09:45;;;;;;;5.38;4.63;;;42.80;37.80;;;;;;5040597;28;20093;-94
2021/07/16 11:12:30;;;;;;;6.20;5.10;;;42.90;37.10;;;;;;5046075;28;20039;-94
2021/07/16 11:18:27;;;;;;;6.82;4.80;;;43.10;37.30;;;;;;4923392;29;20036;-89
2021/07/16 11:21:19;;;;;;;5.70;4.85;;;43.30;37.60;;;;;;4965570;28;20041;-92
2021/07/16 11:23:51;;;;;;;5.57;4.75;;;43.50;37.80;;;;;;5041030;28;20056;-92
2021/07/16 11:26:17;;;;;;;5.10;4.60;;;43.60;36.50;;;;;;5040332;28;20033;-90
2021/07/16 11:28:43;;;;;;;6.25;5.45;;;43.60;37.00;;;;;;5040404;28;20109;-92
2021/07/16 11:31:09;;;;;;;5.53;5.00;;;43.80;37.00;;;;;;5062659;28;20041;-92
2021/07/16 11:33:35;;;;;;;5.72;4.85;;;43.80;36.60;;;;;;5043986;28;20047;-93
2021/07/16 11:36:01;;;;;;;5.90;4.82;;;43.80;36.50;;;;;;5068665;28;20036;-91
2021/07/16 11:38:42;;;;;;;6.35;5.20;;;43.70;36.60;;;;;;5075500;28;20021;-90
2021/07/16 11:41:16;;;;;;;5.30;4.80;;;43.60;36.60;;;;;;5060845;28;20025;-93
2021/07/16 11:43:51;;;;;;;6.15;5.60;;;43.60;35.70;;;;;;5060339;28;20037;-93
2021/07/16 11:46:28;;;;;;;6.50;5.43;;;43.70;36.10;;;;;;5077816;28;20101;-90
2021/07/16 11:48:54;;;;;;;5.35;4.78;;;43.80;36.20;;;;;;5042717;28;20033;-91
2021/07/16 11:51:30;;;;;;;6.00;5.18;;;43.80;36.30;;;;;;5056143;28;20094;-90
2021/07/16 11:54:16;;;;;;;5.47;4.97;;;43.90;36.00;;;;;;5040613;28;20039;-94
2021/07/16 11:57:02;;;;;;;5.60;5.10;;;43.90;36.20;;;;;;5057674;28;20440;-93
2021/07/16 11:59:35;;;;;;;6.20;5.45;;;44.10;35.50;;;;;;5056436;28;20033;-95
2021/07/16 12:02:16;;;;;;;5.88;5.28;;;44.20;35.90;;;;;;5058389;28;20105;-93
2021/07/16 12:04:59;;;;;;;6.05;5.55;;;44.20;35.70;;;;;;5048377;28;20063;-94
2021/07/16 12:11:06;;;;;;;6.18;5.57;;;44.60;35.00;;;;;;5076014;28;20548;-93
2021/07/16 12:16:55;;;;;;;7.45;5.90;;;44.60;34.10;;;;;;5097586;28;20249;-92
2021/07/16 12:19:32;;;;;;;6.72;6.13;;;44.30;35.40;;;;;;5078025;28;20044;-90
2021/07/16 12:21:57;;;;;;;7.32;6.10;;;44.30;35.00;;;;;;5053926;28;20029;-92
2021/07/16 12:24:27;;;;;;;6.57;5.97;;;44.40;35.40;;;;;;5056078;28;20135;-93
2021/07/16 12:27:13;;;;;;;7.63;6.15;;;44.20;35.30;;;;;;5056444;28;20032;-93
2021/07/16 12:29:39;;;;;;;6.60;6.00;;;43.70;35.40;;;;;;5037319;28;20481;-93
2021/07/16 12:32:11;;;;;;;7.28;6.20;;;43.40;36.10;;;;;;5051628;28;20033;-94
2021/07/16 12:34:46;;;;;;;6.90;6.20;;;43.40;36.20;;;;;;5056209;28;20040;-95
2021/07/16 12:41:06;;;;;;;6.65;5.75;;;43.60;35.70;;;;;;5076990;28;20381;-92
2021/07/16 12:47:15;;;;;;;7.70;6.97;;;43.90;35.10;;;;;;5059260;28;20027;-92
2021/07/16 12:50:20;;;;;;;7.43;6.75;;;43.80;35.00;;;;;;5056627;28;20036;-91
2021/07/16 12:53:04;;;;;;;8.60;7.80;;;43.90;35.70;;;;;;5057966;28;20040;-95
2021/07/16 12:55:38;;;;;;;9.70;8.80;;;43.90;36.30;;;;;;5060060;28;20032;-93
2021/07/16 12:58:20;;;;;;;13.50;9.27;;;43.70;36.40;;;;;;5060742;28;20475;-94
2021/07/16 13:01:23;;;;;;;10.50;9.50;;;43.00;37.30;;;;;;5062373;28;20076;-92
2021/07/16 13:03:54;;;;;;;9.82;8.93;;;42.00;38.40;;;;;;5048026;28;20171;-91
2021/07/16 13:09:16;;;;;;;11.02;10.02;;;40.80;39.80;;;;;;5013447;28;20034;-88
2021/07/16 13:11:43;;;;;;;10.77;9.80;;;41.00;40.30;;;;;;5046788;28;20470;-89
2021/07/16 13:14:32;;;;;;;10.65;9.65;;;41.20;40.20;;;;;;5054638;28;20049;-89
2021/07/16 13:17:23;;;;;;;13.57;9.60;;;41.60;40.40;;;;;;5056806;28;20032;-90